sensor_id;sensor_type;location;lat;lon;timestamp;P1;durP1;ratioP1;P2;durP2;ratioP2
53293;SDS011;39181;53.440;5.644;2024-02-15T00:00:03;34.90;;;5.10;;
53293;SDS011;39181;53.440;5.644;2024-02-15T00:02:28;43.95;;;4.88;;
53293;SDS011;39181;53.440;5.644;2024-02-15T00:04:54;35.10;;;5.28;;
53293;SDS011;39181;53.440;5.644;2024-02-15T00:07:20;31.25;;;4.60;;
53293;SDS011;39181;53.440;5.644;2024-02-15T00:09:47;42.75;;;5.53;;
53293;SDS011;39181;53.440;5.644;2024-02-15T00:12:13;37.65;;;4.65;;
53293;SDS011;39181;53.440;5.644;2024-02-15T00:14:39;36.45;;;4.55;;
53293;SDS011;39181;53.440;5.644;2024-02-15T00:17:05;36.72;;;4.70;;
53293;SDS011;39181;53.440;5.644;2024-02-15T00:19:30;38.35;;;3.92;;
53293;SDS011;39181;53.440;5.644;2024-02-15T00:21:56;34.83;;;4.22;;
53293;SDS011;39181;53.440;5.644;2024-02-15T00:24:22;41.88;;;3.78;;
53293;SDS011;39181;53.440;5.644;2024-02-15T00:26:49;32.33;;;4.53;;
53293;SDS011;39181;53.440;5.644;2024-02-15T00:29:14;39.25;;;3.97;;
53293;SDS011;39181;53.440;5.644;2024-02-15T00:31:40;42.05;;;4.32;;
53293;SDS011;39181;53.440;5.644;2024-02-15T00:34:06;31.88;;;3.25;;
53293;SDS011;39181;53.440;5.644;2024-02-15T00:36:31;27.17;;;4.80;;
53293;SDS011;39181;53.440;5.644;2024-02-15T00:38:58;34.28;;;4.60;;
53293;SDS011;39181;53.440;5.644;2024-02-15T00:41:24;36.30;;;4.03;;
53293;SDS011;39181;53.440;5.644;2024-02-15T00:43:50;32.40;;;3.25;;
53293;SDS011;39181;53.440;5.644;2024-02-15T00:46:15;33.30;;;3.70;;
53293;SDS011;39181;53.440;5.644;2024-02-15T00:48:41;35.15;;;3.55;;
53293;SDS011;39181;53.440;5.644;2024-02-15T00:51:07;25.25;;;2.83;;
53293;SDS011;39181;53.440;5.644;2024-02-15T00:53:33;37.55;;;3.22;;
53293;SDS011;39181;53.440;5.644;2024-02-15T00:55:58;29.15;;;3.15;;
53293;SDS011;39181;53.440;5.644;2024-02-15T00:58:24;29.55;;;2.80;;
53293;SDS011;39181;53.440;5.644;2024-02-15T01:00:52;27.92;;;2.72;;
53293;SDS011;39181;53.440;5.644;2024-02-15T01:03:18;21.98;;;2.25;;
53293;SDS011;39181;53.440;5.644;2024-02-15T01:05:44;30.05;;;2.63;;
53293;SDS011;39181;53.440;5.644;2024-02-15T01:08:10;25.45;;;3.08;;
53293;SDS011;39181;53.440;5.644;2024-02-15T01:10:36;27.35;;;2.65;;
53293;SDS011;39181;53.440;5.644;2024-02-15T01:13:02;26.13;;;2.67;;
53293;SDS011;39181;53.440;5.644;2024-02-15T01:15:27;28.73;;;2.80;;
53293;SDS011;39181;53.440;5.644;2024-02-15T01:17:53;24.05;;;3.70;;
53293;SDS011;39181;53.440;5.644;2024-02-15T01:20:19;26.48;;;2.65;;
53293;SDS011;39181;53.440;5.644;2024-02-15T01:22:46;30.00;;;4.97;;
53293;SDS011;39181;53.440;5.644;2024-02-15T01:25:12;33.58;;;3.97;;
53293;SDS011;39181;53.440;5.644;2024-02-15T01:27:40;20.63;;;3.03;;
53293;SDS011;39181;53.440;5.644;2024-02-15T01:30:05;28.75;;;3.10;;
53293;SDS011;39181;53.440;5.644;2024-02-15T01:32:33;31.25;;;3.05;;
53293;SDS011;39181;53.440;5.644;2024-02-15T01:34:59;26.17;;;2.67;;
53293;SDS011;39181;53.440;5.644;2024-02-15T01:37:24;30.38;;;2.85;;
53293;SDS011;39181;53.440;5.644;2024-02-15T01:39:50;30.50;;;2.95;;
53293;SDS011;39181;53.440;5.644;2024-02-15T01:42:16;28.25;;;2.85;;
53293;SDS011;39181;53.440;5.644;2024-02-15T01:44:42;31.40;;;3.28;;
53293;SDS011;39181;53.440;5.644;2024-02-15T01:47:09;23.45;;;2.70;;
53293;SDS011;39181;53.440;5.644;2024-02-15T01:49:36;32.38;;;3.50;;
53293;SDS011;39181;53.440;5.644;2024-02-15T01:52:02;28.08;;;2.78;;
53293;SDS011;39181;53.440;5.644;2024-02-15T01:54:30;34.35;;;3.63;;
53293;SDS011;39181;53.440;5.644;2024-02-15T01:56:57;38.08;;;3.50;;
53293;SDS011;39181;53.440;5.644;2024-02-15T01:59:23;28.88;;;3.53;;
53293;SDS011;39181;53.440;5.644;2024-02-15T02:01:50;35.47;;;3.25;;
53293;SDS011;39181;53.440;5.644;2024-02-15T02:04:16;40.55;;;3.78;;
53293;SDS011;39181;53.440;5.644;2024-02-15T02:06:41;31.13;;;3.35;;
53293;SDS011;39181;53.440;5.644;2024-02-15T02:09:10;37.45;;;3.78;;
53293;SDS011;39181;53.440;5.644;2024-02-15T02:11:39;28.38;;;3.78;;
53293;SDS011;39181;53.440;5.644;2024-02-15T02:14:06;28.48;;;3.35;;
53293;SDS011;39181;53.440;5.644;2024-02-15T02:16:32;23.73;;;3.22;;
53293;SDS011;39181;53.440;5.644;2024-02-15T02:18:58;29.85;;;3.33;;
53293;SDS011;39181;53.440;5.644;2024-02-15T02:21:25;29.92;;;3.25;;
53293;SDS011;39181;53.440;5.644;2024-02-15T02:23:57;38.28;;;3.90;;
53293;SDS011;39181;53.440;5.644;2024-02-15T02:26:24;33.63;;;4.15;;
53293;SDS011;39181;53.440;5.644;2024-02-15T02:28:50;41.83;;;3.83;;
53293;SDS011;39181;53.440;5.644;2024-02-15T02:31:19;30.60;;;3.25;;
53293;SDS011;39181;53.440;5.644;2024-02-15T02:33:47;31.92;;;3.10;;
53293;SDS011;39181;53.440;5.644;2024-02-15T02:36:17;31.27;;;3.92;;
53293;SDS011;39181;53.440;5.644;2024-02-15T02:38:43;35.85;;;4.03;;
53293;SDS011;39181;53.440;5.644;2024-02-15T02:41:10;28.27;;;3.80;;
53293;SDS011;39181;53.440;5.644;2024-02-15T02:43:36;37.53;;;4.20;;
53293;SDS011;39181;53.440;5.644;2024-02-15T02:46:02;29.33;;;3.85;;
53293;SDS011;39181;53.440;5.644;2024-02-15T02:48:30;43.70;;;4.10;;
53293;SDS011;39181;53.440;5.644;2024-02-15T02:50:57;40.25;;;4.40;;
53293;SDS011;39181;53.440;5.644;2024-02-15T02:53:23;28.42;;;3.92;;
53293;SDS011;39181;53.440;5.644;2024-02-15T02:55:49;33.55;;;4.20;;
53293;SDS011;39181;53.440;5.644;2024-02-15T02:58:16;32.15;;;4.30;;
53293;SDS011;39181;53.440;5.644;2024-02-15T03:00:42;47.45;;;5.22;;
53293;SDS011;39181;53.440;5.644;2024-02-15T03:03:07;42.25;;;5.50;;
53293;SDS011;39181;53.440;5.644;2024-02-15T03:05:34;40.85;;;5.05;;
53293;SDS011;39181;53.440;5.644;2024-02-15T03:08:00;44.25;;;5.30;;
53293;SDS011;39181;53.440;5.644;2024-02-15T03:10:25;50.05;;;5.55;;
53293;SDS011;39181;53.440;5.644;2024-02-15T03:12:51;36.10;;;5.93;;
53293;SDS011;39181;53.440;5.644;2024-02-15T03:15:17;57.20;;;7.13;;
53293;SDS011;39181;53.440;5.644;2024-02-15T03:17:45;52.67;;;5.90;;
53293;SDS011;39181;53.440;5.644;2024-02-15T03:20:12;49.40;;;5.88;;
53293;SDS011;39181;53.440;5.644;2024-02-15T03:22:50;44.05;;;6.10;;
53293;SDS011;39181;53.440;5.644;2024-02-15T03:25:17;47.08;;;5.20;;
53293;SDS011;39181;53.440;5.644;2024-02-15T03:27:43;40.22;;;5.07;;
53293;SDS011;39181;53.440;5.644;2024-02-15T03:30:08;36.13;;;4.15;;
53293;SDS011;39181;53.440;5.644;2024-02-15T03:32:35;38.17;;;4.18;;
53293;SDS011;39181;53.440;5.644;2024-02-15T03:35:02;36.20;;;4.43;;
53293;SDS011;39181;53.440;5.644;2024-02-15T03:37:28;32.67;;;4.40;;
53293;SDS011;39181;53.440;5.644;2024-02-15T03:39:54;35.90;;;5.10;;
53293;SDS011;39181;53.440;5.644;2024-02-15T03:42:20;31.33;;;4.25;;
53293;SDS011;39181;53.440;5.644;2024-02-15T03:44:46;33.67;;;3.30;;
53293;SDS011;39181;53.440;5.644;2024-02-15T03:47:13;28.02;;;3.63;;
53293;SDS011;39181;53.440;5.644;2024-02-15T03:49:40;30.77;;;3.47;;
53293;SDS011;39181;53.440;5.644;2024-02-15T03:52:07;38.05;;;3.80;;
53293;SDS011;39181;53.440;5.644;2024-02-15T03:54:35;33.97;;;4.10;;
53293;SDS011;39181;53.440;5.644;2024-02-15T03:57:01;34.35;;;3.72;;
53293;SDS011;39181;53.440;5.644;2024-02-15T03:59:27;30.92;;;3.38;;
53293;SDS011;39181;53.440;5.644;2024-02-15T04:01:53;31.20;;;3.10;;
53293;SDS011;39181;53.440;5.644;2024-02-15T04:04:19;48.78;;;4.25;;
53293;SDS011;39181;53.440;5.644;2024-02-15T04:06:48;31.90;;;3.72;;
53293;SDS011;39181;53.440;5.644;2024-02-15T04:09:14;30.17;;;3.35;;
53293;SDS011;39181;53.440;5.644;2024-02-15T04:11:42;25.35;;;3.60;;
53293;SDS011;39181;53.440;5.644;2024-02-15T04:16:40;28.77;;;3.30;;
53293;SDS011;39181;53.440;5.644;2024-02-15T04:19:06;24.17;;;3.42;;
53293;SDS011;39181;53.440;5.644;2024-02-15T04:21:32;26.50;;;3.60;;
53293;SDS011;39181;53.440;5.644;2024-02-15T04:23:58;31.80;;;4.57;;
53293;SDS011;39181;53.440;5.644;2024-02-15T04:26:24;32.55;;;4.07;;
53293;SDS011;39181;53.440;5.644;2024-02-15T04:28:52;25.95;;;4.05;;
53293;SDS011;39181;53.440;5.644;2024-02-15T04:31:18;31.70;;;5.22;;
53293;SDS011;39181;53.440;5.644;2024-02-15T04:33:44;33.67;;;4.78;;
53293;SDS011;39181;53.440;5.644;2024-02-15T04:36:09;27.35;;;4.43;;
53293;SDS011;39181;53.440;5.644;2024-02-15T04:38:38;25.80;;;3.90;;
53293;SDS011;39181;53.440;5.644;2024-02-15T04:41:04;25.83;;;4.07;;
53293;SDS011;39181;53.440;5.644;2024-02-15T04:43:33;30.23;;;4.00;;
53293;SDS011;39181;53.440;5.644;2024-02-15T04:46:00;34.55;;;5.28;;
53293;SDS011;39181;53.440;5.644;2024-02-15T04:48:27;26.05;;;4.88;;
53293;SDS011;39181;53.440;5.644;2024-02-15T04:50:54;37.00;;;5.88;;
53293;SDS011;39181;53.440;5.644;2024-02-15T04:53:24;35.83;;;5.28;;
53293;SDS011;39181;53.440;5.644;2024-02-15T04:55:50;34.83;;;5.30;;
53293;SDS011;39181;53.440;5.644;2024-02-15T04:58:15;28.92;;;5.18;;
53293;SDS011;39181;53.440;5.644;2024-02-15T05:00:41;25.52;;;5.78;;
53293;SDS011;39181;53.440;5.644;2024-02-15T05:03:07;33.10;;;6.55;;
53293;SDS011;39181;53.440;5.644;2024-02-15T05:05:33;26.55;;;6.22;;
53293;SDS011;39181;53.440;5.644;2024-02-15T05:07:58;42.92;;;6.88;;
53293;SDS011;39181;53.440;5.644;2024-02-15T05:10:26;34.95;;;7.47;;
53293;SDS011;39181;53.440;5.644;2024-02-15T05:12:52;33.13;;;8.50;;
53293;SDS011;39181;53.440;5.644;2024-02-15T05:15:18;41.38;;;9.85;;
53293;SDS011;39181;53.440;5.644;2024-02-15T05:17:48;41.45;;;10.23;;
53293;SDS011;39181;53.440;5.644;2024-02-15T05:20:13;45.75;;;11.13;;
53293;SDS011;39181;53.440;5.644;2024-02-15T05:22:40;57.15;;;11.60;;
53293;SDS011;39181;53.440;5.644;2024-02-15T05:25:10;57.42;;;13.68;;
53293;SDS011;39181;53.440;5.644;2024-02-15T05:27:37;49.35;;;13.95;;
53293;SDS011;39181;53.440;5.644;2024-02-15T05:30:03;34.67;;;12.25;;
53293;SDS011;39181;53.440;5.644;2024-02-15T05:32:33;45.97;;;13.80;;
53293;SDS011;39181;53.440;5.644;2024-02-15T05:35:06;49.63;;;12.93;;
53293;SDS011;39181;53.440;5.644;2024-02-15T05:37:38;31.60;;;9.30;;
53293;SDS011;39181;53.440;5.644;2024-02-15T05:40:04;38.35;;;12.27;;
53293;SDS011;39181;53.440;5.644;2024-02-15T05:42:30;41.38;;;12.27;;
53293;SDS011;39181;53.440;5.644;2024-02-15T05:44:59;48.75;;;12.32;;
53293;SDS011;39181;53.440;5.644;2024-02-15T05:47:49;45.25;;;12.27;;
53293;SDS011;39181;53.440;5.644;2024-02-15T05:50:16;48.08;;;14.07;;
53293;SDS011;39181;53.440;5.644;2024-02-15T05:52:45;51.58;;;14.25;;
53293;SDS011;39181;53.440;5.644;2024-02-15T05:55:11;45.38;;;13.50;;
53293;SDS011;39181;53.440;5.644;2024-02-15T05:57:41;54.78;;;14.50;;
53293;SDS011;39181;53.440;5.644;2024-02-15T06:00:08;44.95;;;14.80;;
53293;SDS011;39181;53.440;5.644;2024-02-15T06:02:34;48.17;;;15.57;;
53293;SDS011;39181;53.440;5.644;2024-02-15T06:05:00;51.53;;;15.57;;
53293;SDS011;39181;53.440;5.644;2024-02-15T06:07:28;51.10;;;16.75;;
53293;SDS011;39181;53.440;5.644;2024-02-15T06:09:57;50.20;;;16.00;;
53293;SDS011;39181;53.440;5.644;2024-02-15T06:12:23;50.25;;;18.45;;
53293;SDS011;39181;53.440;5.644;2024-02-15T06:14:48;49.13;;;18.15;;
53293;SDS011;39181;53.440;5.644;2024-02-15T06:17:14;52.50;;;18.88;;
53293;SDS011;39181;53.440;5.644;2024-02-15T06:19:40;53.78;;;18.38;;
53293;SDS011;39181;53.440;5.644;2024-02-15T06:22:05;47.08;;;17.50;;
53293;SDS011;39181;53.440;5.644;2024-02-15T06:24:31;55.58;;;18.80;;
53293;SDS011;39181;53.440;5.644;2024-02-15T06:26:56;58.22;;;18.65;;
53293;SDS011;39181;53.440;5.644;2024-02-15T06:29:27;56.13;;;19.58;;
53293;SDS011;39181;53.440;5.644;2024-02-15T06:32:12;59.50;;;20.15;;
53293;SDS011;39181;53.440;5.644;2024-02-15T06:35:00;68.60;;;21.30;;
53293;SDS011;39181;53.440;5.644;2024-02-15T06:38:00;68.15;;;19.52;;
53293;SDS011;39181;53.440;5.644;2024-02-15T06:40:44;52.63;;;19.80;;
53293;SDS011;39181;53.440;5.644;2024-02-15T06:43:10;57.40;;;20.48;;
53293;SDS011;39181;53.440;5.644;2024-02-15T06:45:35;61.67;;;21.08;;
53293;SDS011;39181;53.440;5.644;2024-02-15T06:48:01;49.60;;;19.20;;
53293;SDS011;39181;53.440;5.644;2024-02-15T06:50:27;55.95;;;20.15;;
53293;SDS011;39181;53.440;5.644;2024-02-15T06:52:52;59.35;;;21.80;;
53293;SDS011;39181;53.440;5.644;2024-02-15T06:55:18;63.22;;;22.25;;
53293;SDS011;39181;53.440;5.644;2024-02-15T06:57:44;58.92;;;22.42;;
53293;SDS011;39181;53.440;5.644;2024-02-15T07:00:10;65.07;;;22.52;;
53293;SDS011;39181;53.440;5.644;2024-02-15T07:02:40;62.70;;;20.80;;
53293;SDS011;39181;53.440;5.644;2024-02-15T07:05:06;53.15;;;21.40;;
53293;SDS011;39181;53.440;5.644;2024-02-15T07:07:32;53.55;;;21.23;;
53293;SDS011;39181;53.440;5.644;2024-02-15T07:09:59;61.47;;;22.52;;
53293;SDS011;39181;53.440;5.644;2024-02-15T07:12:27;55.10;;;22.13;;
53293;SDS011;39181;53.440;5.644;2024-02-15T07:14:53;60.30;;;22.33;;
53293;SDS011;39181;53.440;5.644;2024-02-15T07:17:19;62.30;;;23.15;;
53293;SDS011;39181;53.440;5.644;2024-02-15T07:19:45;59.72;;;21.98;;
53293;SDS011;39181;53.440;5.644;2024-02-15T07:22:14;58.30;;;21.77;;
53293;SDS011;39181;53.440;5.644;2024-02-15T07:24:40;69.32;;;23.00;;
53293;SDS011;39181;53.440;5.644;2024-02-15T07:27:06;65.10;;;22.52;;
53293;SDS011;39181;53.440;5.644;2024-02-15T07:29:31;68.68;;;25.13;;
53293;SDS011;39181;53.440;5.644;2024-02-15T07:31:58;76.82;;;24.88;;
53293;SDS011;39181;53.440;5.644;2024-02-15T07:34:27;74.22;;;23.90;;
53293;SDS011;39181;53.440;5.644;2024-02-15T07:36:52;77.28;;;23.55;;
53293;SDS011;39181;53.440;5.644;2024-02-15T07:39:18;70.13;;;23.83;;
53293;SDS011;39181;53.440;5.644;2024-02-15T07:41:56;65.20;;;23.10;;
53293;SDS011;39181;53.440;5.644;2024-02-15T07:44:24;74.05;;;23.90;;
53293;SDS011;39181;53.440;5.644;2024-02-15T07:46:52;65.85;;;24.13;;
53293;SDS011;39181;53.440;5.644;2024-02-15T07:49:18;64.18;;;24.45;;
53293;SDS011;39181;53.440;5.644;2024-02-15T07:51:43;62.20;;;22.48;;
53293;SDS011;39181;53.440;5.644;2024-02-15T07:54:10;57.70;;;22.33;;
53293;SDS011;39181;53.440;5.644;2024-02-15T07:56:36;64.20;;;22.08;;
53293;SDS011;39181;53.440;5.644;2024-02-15T07:59:03;71.07;;;23.42;;
53293;SDS011;39181;53.440;5.644;2024-02-15T08:01:29;71.30;;;23.25;;
53293;SDS011;39181;53.440;5.644;2024-02-15T08:03:56;69.07;;;23.05;;
53293;SDS011;39181;53.440;5.644;2024-02-15T08:06:22;79.55;;;22.98;;
53293;SDS011;39181;53.440;5.644;2024-02-15T08:08:52;78.30;;;23.60;;
53293;SDS011;39181;53.440;5.644;2024-02-15T08:11:18;71.25;;;23.73;;
53293;SDS011;39181;53.440;5.644;2024-02-15T08:13:51;67.88;;;23.38;;
53293;SDS011;39181;53.440;5.644;2024-02-15T08:16:19;82.43;;;25.13;;
53293;SDS011;39181;53.440;5.644;2024-02-15T08:18:48;77.95;;;24.02;;
53293;SDS011;39181;53.440;5.644;2024-02-15T08:21:17;71.28;;;24.40;;
53293;SDS011;39181;53.440;5.644;2024-02-15T08:23:43;67.68;;;23.88;;
53293;SDS011;39181;53.440;5.644;2024-02-15T08:26:09;62.20;;;22.25;;
53293;SDS011;39181;53.440;5.644;2024-02-15T08:28:38;76.38;;;22.92;;
53293;SDS011;39181;53.440;5.644;2024-02-15T08:31:03;76.65;;;22.63;;
53293;SDS011;39181;53.440;5.644;2024-02-15T08:33:29;69.88;;;21.75;;
53293;SDS011;39181;53.440;5.644;2024-02-15T08:35:56;72.07;;;21.05;;
53293;SDS011;39181;53.440;5.644;2024-02-15T08:38:22;71.78;;;21.20;;
53293;SDS011;39181;53.440;5.644;2024-02-15T08:40:48;55.63;;;20.63;;
53293;SDS011;39181;53.440;5.644;2024-02-15T08:43:14;62.17;;;21.23;;
53293;SDS011;39181;53.440;5.644;2024-02-15T08:45:40;63.17;;;21.10;;
53293;SDS011;39181;53.440;5.644;2024-02-15T08:48:08;70.93;;;21.35;;
53293;SDS011;39181;53.440;5.644;2024-02-15T08:50:33;58.97;;;20.75;;
53293;SDS011;39181;53.440;5.644;2024-02-15T08:52:59;53.75;;;20.30;;
53293;SDS011;39181;53.440;5.644;2024-02-15T08:55:26;63.58;;;21.02;;
53293;SDS011;39181;53.440;5.644;2024-02-15T08:57:52;63.17;;;21.58;;
53293;SDS011;39181;53.440;5.644;2024-02-15T09:00:19;56.70;;;21.95;;
53293;SDS011;39181;53.440;5.644;2024-02-15T09:02:45;61.72;;;22.88;;
53293;SDS011;39181;53.440;5.644;2024-02-15T09:05:12;56.78;;;22.00;;
53293;SDS011;39181;53.440;5.644;2024-02-15T09:07:39;60.88;;;22.55;;
53293;SDS011;39181;53.440;5.644;2024-02-15T09:10:09;58.58;;;22.50;;
53293;SDS011;39181;53.440;5.644;2024-02-15T09:12:41;63.15;;;22.17;;
53293;SDS011;39181;53.440;5.644;2024-02-15T09:15:08;67.53;;;23.25;;
53293;SDS011;39181;53.440;5.644;2024-02-15T09:17:37;62.45;;;23.80;;
53293;SDS011;39181;53.440;5.644;2024-02-15T09:20:13;55.05;;;24.10;;
53293;SDS011;39181;53.440;5.644;2024-02-15T09:23:00;71.07;;;25.35;;
53293;SDS011;39181;53.440;5.644;2024-02-15T09:25:29;71.93;;;24.50;;
53293;SDS011;39181;53.440;5.644;2024-02-15T09:27:56;66.97;;;25.85;;
53293;SDS011;39181;53.440;5.644;2024-02-15T09:30:22;58.35;;;23.45;;
53293;SDS011;39181;53.440;5.644;2024-02-15T09:32:49;58.63;;;24.60;;
53293;SDS011;39181;53.440;5.644;2024-02-15T09:35:15;64.25;;;27.02;;
53293;SDS011;39181;53.440;5.644;2024-02-15T09:37:44;65.50;;;26.33;;
53293;SDS011;39181;53.440;5.644;2024-02-15T09:40:11;66.00;;;25.90;;
53293;SDS011;39181;53.440;5.644;2024-02-15T09:42:40;58.45;;;25.27;;
53293;SDS011;39181;53.440;5.644;2024-02-15T09:45:06;62.70;;;27.45;;
53293;SDS011;39181;53.440;5.644;2024-02-15T09:47:36;65.43;;;26.98;;
53293;SDS011;39181;53.440;5.644;2024-02-15T09:50:05;63.05;;;27.30;;
53293;SDS011;39181;53.440;5.644;2024-02-15T09:52:44;63.85;;;27.02;;
53293;SDS011;39181;53.440;5.644;2024-02-15T09:55:15;61.30;;;26.85;;
53293;SDS011;39181;53.440;5.644;2024-02-15T09:57:42;67.57;;;26.08;;
53293;SDS011;39181;53.440;5.644;2024-02-15T10:00:10;54.55;;;25.88;;
53293;SDS011;39181;53.440;5.644;2024-02-15T10:02:40;63.47;;;27.10;;
53293;SDS011;39181;53.440;5.644;2024-02-15T10:05:09;53.28;;;25.48;;
53293;SDS011;39181;53.440;5.644;2024-02-15T10:07:42;53.47;;;24.95;;
53293;SDS011;39181;53.440;5.644;2024-02-15T10:10:14;55.28;;;24.95;;
53293;SDS011;39181;53.440;5.644;2024-02-15T10:12:45;56.70;;;24.50;;
53293;SDS011;39181;53.440;5.644;2024-02-15T10:15:34;55.97;;;23.85;;
53293;SDS011;39181;53.440;5.644;2024-02-15T10:18:01;53.72;;;23.75;;
53293;SDS011;39181;53.440;5.644;2024-02-15T10:20:32;51.05;;;22.95;;
53293;SDS011;39181;53.440;5.644;2024-02-15T10:25:29;54.50;;;23.95;;
53293;SDS011;39181;53.440;5.644;2024-02-15T10:28:04;50.20;;;22.70;;
53293;SDS011;39181;53.440;5.644;2024-02-15T10:30:32;55.58;;;23.92;;
53293;SDS011;39181;53.440;5.644;2024-02-15T10:33:01;52.40;;;23.67;;
53293;SDS011;39181;53.440;5.644;2024-02-15T10:35:28;54.13;;;23.40;;
53293;SDS011;39181;53.440;5.644;2024-02-15T10:38:04;62.80;;;24.92;;
53293;SDS011;39181;53.440;5.644;2024-02-15T10:40:32;60.83;;;23.77;;
53293;SDS011;39181;53.440;5.644;2024-02-15T10:42:58;50.45;;;23.95;;
53293;SDS011;39181;53.440;5.644;2024-02-15T10:45:27;51.00;;;24.80;;
53293;SDS011;39181;53.440;5.644;2024-02-15T10:47:55;57.65;;;24.27;;
53293;SDS011;39181;53.440;5.644;2024-02-15T10:50:22;47.85;;;22.23;;
53293;SDS011;39181;53.440;5.644;2024-02-15T10:52:53;54.65;;;22.77;;
53293;SDS011;39181;53.440;5.644;2024-02-15T10:55:26;46.90;;;22.05;;
53293;SDS011;39181;53.440;5.644;2024-02-15T10:58:05;49.33;;;21.52;;
53293;SDS011;39181;53.440;5.644;2024-02-15T11:00:34;44.55;;;22.00;;
53293;SDS011;39181;53.440;5.644;2024-02-15T11:03:05;57.72;;;22.55;;
53293;SDS011;39181;53.440;5.644;2024-02-15T11:05:36;49.88;;;21.63;;
53293;SDS011;39181;53.440;5.644;2024-02-15T11:08:07;52.00;;;21.52;;
53293;SDS011;39181;53.440;5.644;2024-02-15T11:10:36;49.97;;;21.98;;
53293;SDS011;39181;53.440;5.644;2024-02-15T11:13:03;46.72;;;20.85;;
53293;SDS011;39181;53.440;5.644;2024-02-15T11:18:01;38.83;;;19.13;;
53293;SDS011;39181;53.440;5.644;2024-02-15T11:22:57;56.85;;;19.73;;
53293;SDS011;39181;53.440;5.644;2024-02-15T11:25:36;57.00;;;19.13;;
53293;SDS011;39181;53.440;5.644;2024-02-15T11:30:50;65.95;;;17.95;;
53293;SDS011;39181;53.440;5.644;2024-02-15T11:33:28;67.22;;;18.77;;
53293;SDS011;39181;53.440;5.644;2024-02-15T11:36:11;40.38;;;15.50;;
53293;SDS011;39181;53.440;5.644;2024-02-15T11:38:38;35.90;;;15.48;;
53293;SDS011;39181;53.440;5.644;2024-02-15T11:41:09;30.98;;;15.77;;
53293;SDS011;39181;53.440;5.644;2024-02-15T11:46:13;35.72;;;16.17;;
53293;SDS011;39181;53.440;5.644;2024-02-15T11:48:39;35.40;;;14.85;;
53293;SDS011;39181;53.440;5.644;2024-02-15T11:51:05;24.77;;;14.13;;
53293;SDS011;39181;53.440;5.644;2024-02-15T11:53:32;32.15;;;14.80;;
53293;SDS011;39181;53.440;5.644;2024-02-15T11:56:01;26.92;;;14.02;;
53293;SDS011;39181;53.440;5.644;2024-02-15T11:58:29;26.50;;;13.45;;
53293;SDS011;39181;53.440;5.644;2024-02-15T12:01:06;19.58;;;12.02;;
53293;SDS011;39181;53.440;5.644;2024-02-15T12:03:53;26.65;;;11.85;;
53293;SDS011;39181;53.440;5.644;2024-02-15T12:06:38;23.65;;;11.98;;
53293;SDS011;39181;53.440;5.644;2024-02-15T12:09:22;19.63;;;10.88;;
53293;SDS011;39181;53.440;5.644;2024-02-15T12:12:09;19.50;;;10.68;;
53293;SDS011;39181;53.440;5.644;2024-02-15T12:15:00;21.58;;;11.30;;
53293;SDS011;39181;53.440;5.644;2024-02-15T12:17:45;22.63;;;11.70;;
53293;SDS011;39181;53.440;5.644;2024-02-15T12:20:29;46.97;;;12.20;;
53293;SDS011;39181;53.440;5.644;2024-02-15T12:22:56;80.38;;;13.52;;
53293;SDS011;39181;53.440;5.644;2024-02-15T12:25:23;56.78;;;12.27;;
53293;SDS011;39181;53.440;5.644;2024-02-15T12:27:53;60.97;;;12.43;;
53293;SDS011;39181;53.440;5.644;2024-02-15T12:30:20;76.30;;;13.65;;
53293;SDS011;39181;53.440;5.644;2024-02-15T12:32:46;68.47;;;13.23;;
53293;SDS011;39181;53.440;5.644;2024-02-15T12:35:14;61.55;;;13.80;;
53293;SDS011;39181;53.440;5.644;2024-02-15T12:37:48;99.38;;;14.57;;
53293;SDS011;39181;53.440;5.644;2024-02-15T12:40:36;99.68;;;15.27;;
53293;SDS011;39181;53.440;5.644;2024-02-15T12:43:06;84.40;;;13.52;;
53293;SDS011;39181;53.440;5.644;2024-02-15T12:45:37;63.65;;;15.18;;
53293;SDS011;39181;53.440;5.644;2024-02-15T12:48:04;49.63;;;14.25;;
53293;SDS011;39181;53.440;5.644;2024-02-15T12:50:31;35.70;;;15.32;;
53293;SDS011;39181;53.440;5.644;2024-02-15T12:52:57;50.60;;;14.77;;
53293;SDS011;39181;53.440;5.644;2024-02-15T12:55:28;59.47;;;16.13;;
53293;SDS011;39181;53.440;5.644;2024-02-15T12:57:59;72.82;;;15.88;;
53293;SDS011;39181;53.440;5.644;2024-02-15T13:00:40;65.53;;;15.93;;
53293;SDS011;39181;53.440;5.644;2024-02-15T13:03:06;63.13;;;15.60;;
53293;SDS011;39181;53.440;5.644;2024-02-15T13:05:37;55.75;;;15.82;;
53293;SDS011;39181;53.440;5.644;2024-02-15T13:08:04;55.83;;;15.88;;
53293;SDS011;39181;53.440;5.644;2024-02-15T13:10:34;49.72;;;16.45;;
53293;SDS011;39181;53.440;5.644;2024-02-15T13:13:01;32.75;;;15.15;;
53293;SDS011;39181;53.440;5.644;2024-02-15T13:15:26;40.70;;;18.13;;
53293;SDS011;39181;53.440;5.644;2024-02-15T13:17:55;36.60;;;15.93;;
53293;SDS011;39181;53.440;5.644;2024-02-15T13:20:21;29.42;;;16.05;;
53293;SDS011;39181;53.440;5.644;2024-02-15T13:23:01;32.67;;;14.70;;
53293;SDS011;39181;53.440;5.644;2024-02-15T13:25:33;27.80;;;15.07;;
53293;SDS011;39181;53.440;5.644;2024-02-15T13:28:03;30.70;;;14.88;;
53293;SDS011;39181;53.440;5.644;2024-02-15T13:30:29;29.52;;;15.38;;
53293;SDS011;39181;53.440;5.644;2024-02-15T13:32:55;26.42;;;14.25;;
53293;SDS011;39181;53.440;5.644;2024-02-15T13:35:21;27.52;;;15.23;;
53293;SDS011;39181;53.440;5.644;2024-02-15T13:37:52;31.48;;;15.68;;
53293;SDS011;39181;53.440;5.644;2024-02-15T13:40:19;27.15;;;14.35;;
53293;SDS011;39181;53.440;5.644;2024-02-15T13:42:48;27.23;;;14.52;;
53293;SDS011;39181;53.440;5.644;2024-02-15T13:45:39;32.25;;;16.10;;
53293;SDS011;39181;53.440;5.644;2024-02-15T13:48:04;31.83;;;15.82;;
53293;SDS011;39181;53.440;5.644;2024-02-15T13:50:32;33.78;;;16.63;;
53293;SDS011;39181;53.440;5.644;2024-02-15T13:52:58;34.25;;;17.25;;
53293;SDS011;39181;53.440;5.644;2024-02-15T13:55:24;38.67;;;18.23;;
53293;SDS011;39181;53.440;5.644;2024-02-15T13:57:51;40.08;;;19.17;;
53293;SDS011;39181;53.440;5.644;2024-02-15T14:00:17;37.85;;;19.13;;
53293;SDS011;39181;53.440;5.644;2024-02-15T14:02:53;37.80;;;19.42;;
53293;SDS011;39181;53.440;5.644;2024-02-15T14:05:22;39.63;;;19.75;;
53293;SDS011;39181;53.440;5.644;2024-02-15T14:07:56;41.80;;;21.33;;
53293;SDS011;39181;53.440;5.644;2024-02-15T14:10:23;38.60;;;20.02;;
53293;SDS011;39181;53.440;5.644;2024-02-15T14:12:49;41.67;;;21.67;;
53293;SDS011;39181;53.440;5.644;2024-02-15T14:15:26;44.17;;;20.13;;
53293;SDS011;39181;53.440;5.644;2024-02-15T14:17:52;44.45;;;21.30;;
53293;SDS011;39181;53.440;5.644;2024-02-15T14:20:18;44.47;;;21.90;;
53293;SDS011;39181;53.440;5.644;2024-02-15T14:22:48;39.72;;;20.02;;
53293;SDS011;39181;53.440;5.644;2024-02-15T14:25:17;37.75;;;19.83;;
53293;SDS011;39181;53.440;5.644;2024-02-15T14:27:43;47.78;;;22.33;;
53293;SDS011;39181;53.440;5.644;2024-02-15T14:30:09;47.55;;;21.83;;
53293;SDS011;39181;53.440;5.644;2024-02-15T14:32:53;49.97;;;21.25;;
53293;SDS011;39181;53.440;5.644;2024-02-15T14:35:25;55.65;;;22.55;;
53293;SDS011;39181;53.440;5.644;2024-02-15T14:38:00;51.17;;;22.15;;
53293;SDS011;39181;53.440;5.644;2024-02-15T14:40:27;55.50;;;22.67;;
53293;SDS011;39181;53.440;5.644;2024-02-15T14:42:53;50.20;;;21.60;;
53293;SDS011;39181;53.440;5.644;2024-02-15T14:45:19;52.05;;;21.23;;
53293;SDS011;39181;53.440;5.644;2024-02-15T14:47:45;46.30;;;21.55;;